LFBPLFBY

Guest
Details From LFBP - Pau Pyrenees
To LFBY - Dax Seyresse
Flight Number -
Tags generated
Created
Modified
Stats Distance 38 nm / 70 km
Max Altitude 4,600 ft / 1,402 m
Waypoints 3
Social Downloads 0
Likes 0
Share VATSIM

Download

Looking for another format? Having issues loading an existing format? Contact us
Advertisement - Login to hide

Notes

Basic altitude profile: - Ascent Rate: 80ft/min - Ascent Speed: 70kts - Cruise Altitude: 10000ft - Cruise Speed: 100kts - Descent Rate: 80ft/min - Descent Speed: 80kts Options: - Use NATs: no - Use PACOTS: no - Use low airways: yes - Use high airways: no

Route

LFBP ORTEZ LFBY

ID Type Via Altitude Latitude Longitude Leg Dist Tot Dist Heading (true) Name
O LFBP APT - 0 ft / 0 m 43.38108˚ -0.42075˚ - 0 nm - Pau Pyrenees
ORTEZ FIX - 4,600 ft / 1,402 m 43.36556˚ -0.71667˚ 12 nm 12 nm 266° / 266° -
O LFBY APT - 0 ft / 0 m 43.69000˚ -1.06700˚ 24 nm 37 nm 322° / 322° Dax Seyresse

Altitude Profile

Advertisement - Login to hide

LFBP

Details ICAO LFBP (PUF)
Name Pau Pyrenees
Region France
Timezone Europe/Paris (UTC+1.0)
Stats Elevation 616 ft / 188 m (AMSL)
Location 43.381078° -0.420752°
Runways 1
Magnetic Variation 0.094° E

METAR

LFBP 141330Z AUTO 28012KT 9999 FEW021 OVC037 13/09 Q1013 TEMPO 25015G25KT 3000 RA

Decode

TAF

TAF LFBP 141100Z 1412/1512 28010KT 9999 BKN030 TEMPO 1414/1508 25015G25KT 3000 RA TEMPO 1508/1512 27015G25KT 4000 SHRA BKN015TCU

Decode

Departure Runways

ID Width Length Bearing (true) Bearing (mag) Surface Threshold Offset Overrun Length
13 148 ft / 45 m 8,191 ft / 2,497 m 125.89° 125.80° Asphalt 0 ft / 0 m 0 ft / 0 m
31 148 ft / 45 m 8,191 ft / 2,497 m 305.90° 305.81° Asphalt 0 ft / 0 m 0 ft / 0 m

LFBY

Details ICAO LFBY
Name Dax Seyresse
Region France
Timezone Europe/Paris (UTC+1.0)
Stats Elevation 108 ft / 33 m (AMSL)
Location 43.689995° -1.066997°
Runways 1
Magnetic Variation 0.105° W

METAR

LFBY 141300Z 25012KT 220V290 7000 SCT010 BKN023 BKN036 13/10 Q1013

Decode

TAF

Not found

Destination Runways

ID Width Length Bearing (true) Bearing (mag) Surface Threshold Offset Overrun Length
08 98 ft / 30 m 2,462 ft / 751 m 74.00° 74.11° Dirt 0 ft / 0 m 0 ft / 0 m
26 98 ft / 30 m 2,462 ft / 751 m 254.00° 254.11° Dirt 0 ft / 0 m 0 ft / 0 m

Popular Alternatives